Terminal Aerodrome Forecast
Issued by NWS Cleveland, OH

Home | Current Version | Previous Version | Text Only | Print | Product List | Glossary On
Versions: 1 2 3 4 5 6 7 8 9 10 11 12 13 14 15 16 17 18 19
280
FTUS41 KCLE 071939 AAB
TAFERI
TAF AMD
KERI 071939Z 0720/0818 24012G18KT P6SM SCT025 BKN120
     FM080400 24014G22KT P6SM OVC025 PROB30 0808/0814 4SM -SN OVC020
     FM081400 25015G25KT 6SM -SN OVC020
      TEMPO 0814/0818 4SM -SN=

USA.gov is the U.S. government's official web portal to all federal, state and local government web resources and services.